Time;durP1;ratioP1;P1;durP2;ratioP2;P2;SDS_P1;SDS_P2;PMS_P1;PMS_P2;Temp;Humidity;BMP_temperature;BMP_pressure;BME280_temperature;BME280_humidity;BME280_pressure;Samples;Min_cycle;Max_cycle;Signal;HPM_P1;HPM_P2
2022/04/06 01:23:56;;;;;;;;;;;;;;;8.94;67.96;96718.75;12793063;23;19920;-77
2022/04/06 01:41:32;;;;;;;;;;;;;;;8.89;68.69;96718.53;12787992;23;19920;-82
2022/04/06 03:06:10;;;;;;;;;;;;;;;9.18;68.56;96720.88;12813691;23;19948;-81
2022/04/06 03:47:43;;;;;;;;;;;;;;;9.16;68.14;96717.25;12802387;23;19951;-80
2022/04/06 03:53:05;;;;;;;;;;;;;;;9.18;68.46;96697.88;12814355;23;19932;-79
2022/04/06 03:58:26;;;;;;;;;;;;;;;9.11;68.49;96696.09;12836481;23;19908;-80
2022/04/06 04:03:48;;;;;;;;;;;;;;;9.06;68.69;96702.75;12795202;23;19904;-79
2022/04/06 04:27:37;;;;;;;;;;;;;;;9.05;68.97;96709.66;12828980;23;19928;-82
2022/04/06 04:32:59;;;;;;;;;;;;;;;9.06;69.28;96714.59;12877771;23;19927;-79
2022/04/06 04:38:21;;;;;;;;;;;;;;;9.09;69.10;96723.81;12853635;23;19935;-80
2022/04/06 04:43:42;;;;;;;;;;;;;;;9.09;69.12;96729.38;12857136;23;19910;-80
2022/04/06 04:49:04;;;;;;;;;;;;;;;9.12;69.14;96717.75;12852815;23;19919;-80
2022/04/06 04:54:26;;;;;;;;;;;;;;;9.17;69.41;96727.06;12878171;23;19920;-81
2022/04/06 04:59:52;;;;;;;;;;;;;;;9.24;69.21;96734.41;12854171;23;19927;-81
2022/04/06 05:05:14;;;;;;;;;;;;;;;9.30;69.09;96737.53;12845011;23;19912;-82
2022/04/06 05:10:35;;;;;;;;;;;;;;;9.38;68.78;96738.00;12836923;23;19904;-81
2022/04/06 05:15:56;;;;;;;;;;;;;;;9.41;68.72;96742.34;12837449;23;19908;-82
2022/04/06 05:21:18;;;;;;;;;;;;;;;9.48;68.45;96745.47;12795810;23;19908;-81
2022/04/06 05:26:39;;;;;;;;;;;;;;;9.50;68.34;96742.78;12816293;23;19946;-79
2022/04/06 05:44:26;;;;;;;;;;;;;;;9.71;67.66;96748.13;12821528;23;19908;-81
2022/04/06 05:49:47;;;;;;;;;;;;;;;9.82;67.46;96746.63;12853481;23;19904;-81
2022/04/06 05:55:09;;;;;;;;;;;;;;;9.96;67.23;96758.56;12857762;23;19904;-81
2022/04/06 06:00:30;;;;;;;;;;;;;;;10.07;66.74;96757.03;12853558;23;19920;-80
2022/04/06 06:05:52;;;;;;;;;;;;;;;10.19;66.24;96755.59;12844802;23;19911;-81
2022/04/06 06:11:13;;;;;;;;;;;;;;;10.26;66.18;96762.25;12797149;23;19929;-81
2022/04/06 06:16:35;;;;;;;;;;;;;;;10.32;66.45;96768.16;12819189;23;19904;-81
2022/04/06 06:21:56;;;;;;;;;;;;;;;10.31;65.81;96772.28;12840244;23;19904;-81
2022/04/06 06:27:19;;;;;;;;;;;;;;;10.40;65.54;96774.16;12819219;23;19910;-82
2022/04/06 06:32:42;;;;;;;;;;;;;;;10.55;65.33;96770.06;12774575;23;19947;-81
2022/04/06 06:38:03;;;;;;;;;;;;;;;10.79;64.80;96760.13;12794137;23;19931;-80
2022/04/06 06:43:25;;;;;;;;;;;;;;;11.20;64.73;96773.34;12818467;23;19935;-81
2022/04/06 06:48:47;;;;;;;;;;;;;;;11.27;63.87;96771.56;12797199;23;19919;-82
2022/04/06 06:54:09;;;;;;;;;;;;;;;11.22;63.16;96764.34;12838720;23;19911;-82
2022/04/06 06:59:30;;;;;;;;;;;;;;;11.23;62.98;96766.50;12838766;23;19943;-81
2022/04/06 07:04:52;;;;;;;;;;;;;;;11.33;62.64;96774.66;12817803;23;19928;-81
2022/04/06 07:10:13;;;;;;;;;;;;;;;11.32;62.43;96773.22;12796904;23;20397;-78
2022/04/06 07:15:34;;;;;;;;;;;;;;;11.12;62.52;96779.25;12839469;23;19910;-83
2022/04/06 07:20:57;;;;;;;;;;;;;;;11.16;62.63;96771.06;12818736;23;19920;-80
2022/04/06 07:26:18;;;;;;;;;;;;;;;11.33;62.60;96778.16;12838848;23;19911;-80
2022/04/06 07:31:41;;;;;;;;;;;;;;;11.49;61.99;96775.44;12858048;23;19921;-82
2022/04/06 07:37:04;;;;;;;;;;;;;;;11.73;61.67;96771.00;12836661;23;19920;-81
2022/04/06 07:42:24;;;;;;;;;;;;;;;12.22;60.79;96753.72;12836632;23;19964;-81
2022/04/06 07:47:47;;;;;;;;;;;;;;;12.40;59.69;96753.81;12795778;23;19924;-80
2022/04/06 07:53:08;;;;;;;;;;;;;;;12.82;58.75;96763.34;12815712;23;19936;-82
2022/04/06 07:58:29;;;;;;;;;;;;;;;13.14;58.05;96752.06;12836616;23;19920;-82
2022/04/06 08:03:51;;;;;;;;;;;;;;;13.52;56.50;96752.25;12790335;23;19948;-81
2022/04/06 08:09:12;;;;;;;;;;;;;;;13.89;55.02;96749.47;12816534;23;19935;-82
2022/04/06 08:14:33;;;;;;;;;;;;;;;13.94;55.17;96753.91;12837284;23;19924;-81
2022/04/06 08:19:54;;;;;;;;;;;;;;;13.51;54.74;96754.31;12815540;23;19956;-81
2022/04/06 08:25:16;;;;;;;;;;;;;;;13.12;54.49;96760.38;12792572;23;19919;-81
2022/04/06 08:30:57;;;;;;;;;;;;;;;13.03;55.39;96764.94;12825290;23;19920;-79
2022/04/06 08:36:19;;;;;;;;;;;;;;;13.12;54.71;96765.97;12834966;23;19921;-80
2022/04/06 08:41:41;;;;;;;;;;;;;;;13.00;54.26;96766.19;12787979;23;19904;-81
2022/04/06 08:47:03;;;;;;;;;;;;;;;13.15;54.02;96762.66;12841974;23;19924;-78
2022/04/06 08:52:24;;;;;;;;;;;;;;;13.40;53.32;96767.19;12810510;23;19911;-80
2022/04/06 08:58:07;;;;;;;;;;;;;;;13.16;53.26;96763.38;12813538;23;19921;-81
2022/04/06 09:03:29;;;;;;;;;;;;;;;12.84;53.13;96762.72;12815102;23;19904;-81
2022/04/06 09:08:51;;;;;;;;;;;;;;;12.97;53.75;96753.47;12835639;23;19976;-81
2022/04/06 09:14:13;;;;;;;;;;;;;;;13.72;52.03;96759.38;12816200;23;19910;-81
2022/04/06 09:19:38;;;;;;;;;;;;;;;13.86;50.68;96759.19;12836090;23;19910;-81
2022/04/06 09:25:00;;;;;;;;;;;;;;;13.94;49.69;96748.28;12836223;23;19927;-80
2022/04/06 09:30:21;;;;;;;;;;;;;;;13.59;50.11;96743.41;12835978;23;19957;-80
2022/04/06 09:35:41;;;;;;;;;;;;;;;13.63;50.27;96737.25;12793807;23;19944;-80
2022/04/06 09:41:03;;;;;;;;;;;;;;;13.61;49.70;96729.50;12783859;23;19920;-78
2022/04/06 09:52:04;;;;;;;;;;;;;;;14.39;48.86;96721.91;12816847;23;19964;-78
2022/04/06 09:57:24;;;;;;;;;;;;;;;14.06;48.39;96730.47;12833470;23;19910;-86
2022/04/06 10:03:06;;;;;;;;;;;;;;;14.07;48.88;96723.50;12815282;23;19959;-85
2022/04/06 10:08:26;;;;;;;;;;;;;;;14.16;47.87;96733.66;12857878;23;19904;-87
2022/04/06 10:13:48;;;;;;;;;;;;;;;14.24;47.76;96709.41;12816083;23;19969;-79
2022/04/06 10:19:19;;;;;;;;;;;;;;;15.92;44.62;96701.69;12748229;23;19931;-79
2022/04/06 10:25:01;;;;;;;;;;;;;;;17.96;40.79;96700.00;12767632;23;19959;-87
2022/04/06 10:30:23;;;;;;;;;;;;;;;19.16;37.90;96679.75;12781178;23;20283;-87
2022/04/06 10:35:44;;;;;;;;;;;;;;;18.11;39.01;96678.44;12780684;23;19920;-85
2022/04/06 10:41:07;;;;;;;;;;;;;;;17.23;39.81;96675.00;12760061;23;19935;-84
2022/04/06 10:46:47;;;;;;;;;;;;;;;17.78;37.39;96677.03;12780104;23;19921;-85
2022/04/06 10:52:18;;;;;;;;;;;;;;;17.31;38.38;96667.44;12780821;23;19920;-81
2022/04/06 10:57:57;;;;;;;;;;;;;;;17.42;38.32;96660.66;12759859;23;19927;-79
2022/04/06 11:03:19;;;;;;;;;;;;;;;16.67;38.57;96655.94;12770288;23;19928;-79
2022/04/06 11:14:29;;;;;;;;;;;;;;;15.96;39.99;96651.16;12725780;23;20243;-79
2022/04/06 11:19:51;;;;;;;;;;;;;;;16.01;39.63;96659.03;12740218;23;19931;-79
2022/04/06 11:25:15;;;;;;;;;;;;;;;16.28;39.75;96635.19;12698185;23;20232;-79
2022/04/06 11:30:38;;;;;;;;;;;;;;;16.58;39.71;96637.38;12739075;23;20328;-80
2022/04/06 11:36:00;;;;;;;;;;;;;;;18.32;37.21;96611.78;12695990;23;20259;-80
2022/04/06 11:41:21;;;;;;;;;;;;;;;18.19;35.46;96616.47;12715805;23;19971;-80
2022/04/06 11:46:45;;;;;;;;;;;;;;;16.96;36.94;96626.41;12715966;23;19972;-78
2022/04/06 11:52:07;;;;;;;;;;;;;;;16.81;36.68;96608.44;12739992;23;20217;-78
2022/04/06 11:57:34;;;;;;;;;;;;;;;16.52;37.15;96594.97;12760545;23;19920;-77
2022/04/06 12:02:55;;;;;;;;;;;;;;;16.47;37.13;96611.03;12716749;23;20013;-77
2022/04/06 12:08:16;;;;;;;;;;;;;;;16.14;37.22;96586.22;12739132;23;19921;-77
2022/04/06 12:13:40;;;;;;;;;;;;;;;15.71;37.48;96577.28;12739713;23;19925;-77
2022/04/06 12:19:03;;;;;;;;;;;;;;;15.98;37.84;96583.66;12719267;23;19920;-77
2022/04/06 12:24:35;;;;;;;;;;;;;;;16.91;37.31;96576.97;12700735;23;20367;-77
2022/04/06 12:30:05;;;;;;;;;;;;;;;16.93;36.21;96573.47;12697205;23;19920;-77
2022/04/06 12:35:26;;;;;;;;;;;;;;;16.91;36.29;96564.97;12785334;23;19920;-78
2022/04/06 12:53:04;;;;;;;;;;;;;;;16.44;37.45;96550.41;12800216;23;20386;-79
2022/04/06 13:04:26;;;;;;;;;;;;;;;16.54;38.07;96530.25;12807304;23;19920;-78
2022/04/06 13:09:53;;;;;;;;;;;;;;;16.78;37.60;96530.13;12829481;23;19963;-77
2022/04/06 13:15:14;;;;;;;;;;;;;;;16.50;38.02;96530.88;12797694;23;19904;-78
2022/04/06 13:20:44;;;;;;;;;;;;;;;16.63;38.00;96514.97;12776790;23;19934;-79
2022/04/06 13:26:17;;;;;;;;;;;;;;;17.17;37.92;96506.38;12831809;23;19947;-79
2022/04/06 13:31:41;;;;;;;;;;;;;;;17.15;37.43;96509.16;12854202;23;19995;-77
2022/04/06 13:37:01;;;;;;;;;;;;;;;17.47;37.42;96497.88;12843454;23;19927;-77
2022/04/06 13:42:23;;;;;;;;;;;;;;;17.31;37.16;96486.94;12846487;23;19943;-77
2022/04/06 13:47:43;;;;;;;;;;;;;;;17.28;37.19;96482.66;12845441;23;19920;-75
2022/04/06 13:53:04;;;;;;;;;;;;;;;17.27;37.17;96467.13;12845083;23;19919;-76
2022/04/06 13:58:24;;;;;;;;;;;;;;;17.35;37.33;96470.09;12865597;23;20378;-80
2022/04/06 14:03:45;;;;;;;;;;;;;;;17.22;37.15;96462.78;12828410;23;19967;-77
2022/04/06 14:09:06;;;;;;;;;;;;;;;17.23;36.78;96452.94;12782862;23;19921;-79
2022/04/06 14:14:26;;;;;;;;;;;;;;;17.28;36.90;96443.19;12785478;23;19920;-79
2022/04/06 14:19:48;;;;;;;;;;;;;;;17.19;36.22;96452.88;12824834;23;19947;-78
2022/04/06 14:25:20;;;;;;;;;;;;;;;16.73;36.73;96439.19;12797773;23;19920;-77
2022/04/06 14:30:48;;;;;;;;;;;;;;;16.53;36.99;96438.69;12819767;23;19920;-78
2022/04/06 14:36:09;;;;;;;;;;;;;;;16.47;37.02;96399.09;12846876;23;19963;-78
2022/04/06 14:41:30;;;;;;;;;;;;;;;16.40;36.84;96403.16;12838508;23;20339;-79
2022/04/06 14:46:51;;;;;;;;;;;;;;;16.22;37.13;96395.72;12841768;23;20271;-79
2022/04/06 14:52:12;;;;;;;;;;;;;;;16.17;37.36;96394.19;12810102;23;19924;-78
2022/04/06 14:57:34;;;;;;;;;;;;;;;16.04;37.35;96392.47;12806146;23;20246;-78
2022/04/06 15:02:55;;;;;;;;;;;;;;;15.91;37.37;96396.34;12827529;23;19924;-78
2022/04/06 15:08:15;;;;;;;;;;;;;;;15.93;37.63;96390.78;12798579;23;19924;-78
2022/04/06 15:13:36;;;;;;;;;;;;;;;15.84;37.80;96391.97;12814604;23;20212;-78
2022/04/06 15:18:56;;;;;;;;;;;;;;;15.81;38.06;96387.63;12821430;23;19921;-79
2022/04/06 15:24:17;;;;;;;;;;;;;;;15.73;37.67;96391.69;12790500;23;19927;-79
2022/04/06 15:29:38;;;;;;;;;;;;;;;15.53;38.02;96377.06;12790367;23;19920;-79
2022/04/06 15:40:38;;;;;;;;;;;;;;;15.25;38.63;96365.78;12801723;23;19921;-78
2022/04/06 15:45:58;;;;;;;;;;;;;;;15.06;39.14;96367.38;12803325;23;19920;-78
2022/04/06 15:51:19;;;;;;;;;;;;;;;14.91;39.55;96351.47;12824464;23;19910;-81
2022/04/06 15:56:40;;;;;;;;;;;;;;;14.69;39.98;96354.38;12800191;23;19920;-87
2022/04/06 16:02:01;;;;;;;;;;;;;;;14.48;40.56;96341.81;12837836;23;19971;-76
2022/04/06 16:07:22;;;;;;;;;;;;;;;14.39;40.48;96333.78;12811419;23;19928;-80
2022/04/06 16:12:43;;;;;;;;;;;;;;;14.29;40.91;96331.41;12814257;23;20248;-80
2022/04/06 16:18:04;;;;;;;;;;;;;;;14.22;41.23;96338.19;12815788;23;19965;-77
2022/04/06 16:23:24;;;;;;;;;;;;;;;14.19;41.75;96331.81;12807190;23;19920;-81
2022/04/06 16:28:45;;;;;;;;;;;;;;;14.16;41.94;96341.50;12805660;23;19926;-80
2022/04/06 16:34:06;;;;;;;;;;;;;;;14.16;42.50;96332.38;12791797;23;19921;-78
2022/04/06 16:39:29;;;;;;;;;;;;;;;14.17;42.26;96340.13;12787964;23;20319;-79
2022/04/06 16:44:50;;;;;;;;;;;;;;;14.06;42.93;96335.59;12807463;23;19979;-81
2022/04/06 16:55:50;;;;;;;;;;;;;;;13.88;43.46;96330.09;12771389;23;19995;-77
2022/04/06 17:01:11;;;;;;;;;;;;;;;13.74;44.18;96338.06;12759504;23;19921;-83
2022/04/06 17:06:32;;;;;;;;;;;;;;;13.58;44.72;96321.44;12809490;23;19928;-80
2022/04/06 17:11:52;;;;;;;;;;;;;;;13.44;44.87;96316.06;12825375;23;19904;-81
2022/04/06 17:17:16;;;;;;;;;;;;;;;13.33;45.33;96314.31;12804069;23;19920;-80
2022/04/06 17:22:39;;;;;;;;;;;;;;;13.20;45.19;96315.22;12801506;23;19942;-76
2022/04/06 17:28:00;;;;;;;;;;;;;;;13.09;45.47;96324.63;12844235;23;19940;-79
2022/04/06 17:33:21;;;;;;;;;;;;;;;12.96;45.87;96317.19;12824728;23;19939;-80
2022/04/06 17:38:41;;;;;;;;;;;;;;;12.76;46.66;96312.28;12802021;23;19924;-79
2022/04/06 17:44:04;;;;;;;;;;;;;;;12.60;46.78;96312.41;12804646;23;19991;-79
2022/04/06 17:49:26;;;;;;;;;;;;;;;12.47;46.98;96312.63;12804547;23;19947;-81
2022/04/06 17:54:47;;;;;;;;;;;;;;;12.36;47.18;96310.81;12816838;23;19924;-80
2022/04/06 18:00:08;;;;;;;;;;;;;;;12.24;47.45;96311.75;12821540;23;19927;-79
2022/04/06 18:05:31;;;;;;;;;;;;;;;12.13;48.06;96306.41;12809441;23;19924;-79
2022/04/06 18:16:31;;;;;;;;;;;;;;;11.88;48.76;96315.97;12805012;23;19920;-77
2022/04/06 18:21:51;;;;;;;;;;;;;;;11.76;48.70;96311.28;12764228;23;20319;-78
2022/04/06 18:27:12;;;;;;;;;;;;;;;11.67;49.68;96309.50;12773003;23;19928;-78
2022/04/06 18:32:35;;;;;;;;;;;;;;;11.66;49.20;96307.34;12790323;23;19926;-78
2022/04/06 18:37:56;;;;;;;;;;;;;;;11.65;49.15;96303.84;12822900;23;19971;-79
2022/04/06 18:43:16;;;;;;;;;;;;;;;11.64;49.96;96304.47;12843163;23;20002;-79
2022/04/06 18:48:37;;;;;;;;;;;;;;;11.57;49.97;96311.19;12810564;23;20247;-77
2022/04/06 18:54:00;;;;;;;;;;;;;;;11.45;50.22;96298.16;12791510;23;19921;-77
2022/04/06 18:59:27;;;;;;;;;;;;;;;11.40;50.25;96301.44;12813529;23;19919;-81
2022/04/06 19:04:48;;;;;;;;;;;;;;;11.31;50.53;96296.88;12836803;23;19951;-80
2022/04/06 19:10:09;;;;;;;;;;;;;;;11.21;50.29;96299.97;12801151;23;19964;-77
2022/04/06 19:15:30;;;;;;;;;;;;;;;11.11;50.44;96308.63;12815444;23;19924;-78
2022/04/06 19:20:52;;;;;;;;;;;;;;;11.06;51.18;96295.84;12795652;23;19927;-78
2022/04/06 19:26:40;;;;;;;;;;;;;;;11.06;51.40;96297.91;12814130;23;19980;-79
2022/04/06 19:32:00;;;;;;;;;;;;;;;11.07;51.46;96296.53;12826772;23;19904;-78
2022/04/06 19:37:22;;;;;;;;;;;;;;;11.05;52.01;96293.69;12823218;23;19935;-78
2022/04/06 19:42:43;;;;;;;;;;;;;;;11.01;51.92;96291.44;12825384;23;19991;-79
2022/04/06 19:48:04;;;;;;;;;;;;;;;11.00;51.94;96292.81;12828109;23;19911;-78
2022/04/06 19:53:25;;;;;;;;;;;;;;;10.96;51.93;96292.59;12854861;23;19911;-80
2022/04/06 19:58:46;;;;;;;;;;;;;;;10.96;52.46;96289.09;12829386;23;19924;-79
2022/04/06 20:04:08;;;;;;;;;;;;;;;10.94;52.68;96289.75;12824845;23;19943;-79
2022/04/06 20:09:29;;;;;;;;;;;;;;;10.93;52.70;96282.00;12813241;23;19924;-80
2022/04/06 20:14:50;;;;;;;;;;;;;;;10.89;52.57;96276.94;12786511;23;19940;-79
2022/04/06 20:20:13;;;;;;;;;;;;;;;10.89;52.50;96277.66;12810440;23;19969;-78
2022/04/06 20:25:35;;;;;;;;;;;;;;;10.88;52.88;96272.72;12831289;23;19943;-81
2022/04/06 20:30:58;;;;;;;;;;;;;;;10.86;52.95;96267.06;12864709;23;19930;-80
2022/04/06 20:36:20;;;;;;;;;;;;;;;10.91;53.19;96262.38;12851100;23;19956;-79
2022/04/06 20:41:42;;;;;;;;;;;;;;;10.94;53.40;96261.81;12809685;23;19996;-80
2022/04/06 20:47:04;;;;;;;;;;;;;;;10.93;52.99;96254.09;12850599;23;19920;-79
2022/04/06 20:52:25;;;;;;;;;;;;;;;10.94;53.49;96256.25;12844570;23;20208;-79
2022/04/06 20:57:45;;;;;;;;;;;;;;;10.91;53.23;96254.72;12847280;23;19924;-79
2022/04/06 21:03:06;;;;;;;;;;;;;;;10.85;53.56;96248.88;12844450;23;19984;-79
2022/04/06 21:08:47;;;;;;;;;;;;;;;10.80;53.54;96261.19;12755306;23;19920;-80
2022/04/06 21:14:08;;;;;;;;;;;;;;;10.71;54.01;96251.78;12767651;23;19921;-80
2022/04/06 21:19:34;;;;;;;;;;;;;;;10.59;54.96;96249.16;12752005;23;19946;-80
2022/04/06 21:24:54;;;;;;;;;;;;;;;10.51;54.57;96245.31;12745181;23;19928;-80
2022/04/06 21:30:15;;;;;;;;;;;;;;;10.52;54.55;96252.34;12748874;23;19951;-80
2022/04/06 21:35:36;;;;;;;;;;;;;;;10.44;54.63;96244.34;12771480;23;19933;-79
2022/04/06 21:40:57;;;;;;;;;;;;;;;10.36;55.02;96238.41;12793263;23;19959;-80
2022/04/06 21:46:18;;;;;;;;;;;;;;;10.38;54.76;96234.97;12817442;23;20008;-79
2022/04/06 21:51:39;;;;;;;;;;;;;;;10.36;55.08;96227.25;12796011;23;19904;-79
2022/04/06 21:57:00;;;;;;;;;;;;;;;10.35;54.80;96222.31;12796382;23;19904;-79
2022/04/06 22:02:21;;;;;;;;;;;;;;;10.32;55.22;96224.97;12775061;23;19944;-80
2022/04/06 22:07:42;;;;;;;;;;;;;;;10.29;54.70;96219.94;12755476;23;19920;-79
2022/04/06 22:13:04;;;;;;;;;;;;;;;10.29;54.79;96219.94;12776058;23;19931;-81
2022/04/06 22:18:24;;;;;;;;;;;;;;;10.30;54.67;96221.38;12787495;23;19936;-80
2022/04/06 22:23:45;;;;;;;;;;;;;;;10.30;54.25;96215.81;12754841;23;19928;-80
2022/04/06 22:29:09;;;;;;;;;;;;;;;10.28;54.20;96215.72;12755021;23;19916;-80
2022/04/06 22:34:30;;;;;;;;;;;;;;;10.31;54.21;96211.66;12755945;23;19951;-81
2022/04/06 22:39:50;;;;;;;;;;;;;;;10.33;54.08;96206.19;12774911;23;19928;-80
2022/04/06 22:45:12;;;;;;;;;;;;;;;10.33;54.06;96203.41;12775233;23;19921;-80
2022/04/06 22:50:32;;;;;;;;;;;;;;;10.36;53.89;96212.59;12774860;23;19912;-79
2022/04/06 22:55:53;;;;;;;;;;;;;;;10.32;53.53;96208.25;12774988;23;19905;-80
2022/04/06 23:01:14;;;;;;;;;;;;;;;10.24;54.25;96201.63;12774678;23;19920;-80
2022/04/06 23:06:35;;;;;;;;;;;;;;;10.26;54.24;96204.50;12759614;23;19905;-80
2022/04/06 23:11:55;;;;;;;;;;;;;;;10.28;54.15;96204.56;12775158;23;19909;-80
2022/04/06 23:17:16;;;;;;;;;;;;;;;10.26;54.22;96198.91;12750563;23;19925;-80
2022/04/06 23:22:37;;;;;;;;;;;;;;;10.28;54.27;96212.94;12774691;23;19920;-80
2022/04/06 23:27:57;;;;;;;;;;;;;;;10.28;54.33;96208.06;12775534;23;19928;-79
2022/04/06 23:33:19;;;;;;;;;;;;;;;10.26;54.03;96212.84;12754626;23;19921;-80
2022/04/06 23:38:40;;;;;;;;;;;;;;;10.18;54.62;96213.19;12795739;23;19944;-79
2022/04/06 23:44:01;;;;;;;;;;;;;;;10.17;54.28;96213.81;12774917;23;19904;-79
2022/04/06 23:49:21;;;;;;;;;;;;;;;10.11;54.69;96205.16;12775073;23;19904;-80
2022/04/06 23:54:42;;;;;;;;;;;;;;;10.08;55.06;96201.59;12754407;23;19921;-80
